createdAt,value
2019-04-01T00:00:50.690Z,99.90
2019-04-01T00:03:19.639Z,99.90
2019-04-01T00:05:48.561Z,99.90
2019-04-01T00:08:17.430Z,99.90
2019-04-01T00:10:46.350Z,99.90
2019-04-01T00:13:15.386Z,99.90
2019-04-01T00:15:44.359Z,99.90
2019-04-01T00:18:13.321Z,99.90
2019-04-01T00:20:42.263Z,99.90
2019-04-01T00:23:11.375Z,99.90
2019-04-01T00:25:40.657Z,99.90
2019-04-01T00:28:09.635Z,99.90
2019-04-01T00:30:38.554Z,99.90
2019-04-01T00:33:07.427Z,99.90
2019-04-01T00:35:36.462Z,99.90
2019-04-01T00:38:05.485Z,99.90
2019-04-01T00:40:34.428Z,99.90
2019-04-01T00:43:12.482Z,99.90
2019-04-01T00:45:42.978Z,99.90
2019-04-01T00:48:11.913Z,99.90
2019-04-01T00:50:40.803Z,99.90
2019-04-01T00:53:10.165Z,99.90
2019-04-01T00:55:39.174Z,99.90
2019-04-01T00:58:08.452Z,99.90
2019-04-01T01:00:37.750Z,99.90
2019-04-01T01:03:06.979Z,99.90
2019-04-01T01:05:36.022Z,99.90
2019-04-01T01:08:05.024Z,99.90
2019-04-01T01:10:34.145Z,99.90
2019-04-01T01:13:03.034Z,99.90
2019-04-01T01:15:31.962Z,99.90
2019-04-01T01:18:01.062Z,99.90
2019-04-01T01:20:29.998Z,99.90
2019-04-01T01:22:58.977Z,99.90
2019-04-01T01:25:27.927Z,99.90
2019-04-01T01:27:56.859Z,99.90
2019-04-01T01:30:26.074Z,99.90
2019-04-01T01:32:55.132Z,99.90
2019-04-01T01:35:24.078Z,99.90
2019-04-01T01:37:53.432Z,99.90
2019-04-01T01:40:22.396Z,99.90
2019-04-01T01:42:51.844Z,99.90
2019-04-01T01:45:20.771Z,99.90
2019-04-01T01:47:49.986Z,99.90
2019-04-01T01:50:18.974Z,99.90
2019-04-01T01:52:48.009Z,99.90
2019-04-01T01:55:16.969Z,99.90
2019-04-01T01:57:46.251Z,99.90
2019-04-01T02:00:16.128Z,99.90
2019-04-01T02:02:45.030Z,99.90
2019-04-01T02:05:14.415Z,99.90
2019-04-01T02:07:43.402Z,99.90
2019-04-01T02:10:12.343Z,99.90
2019-04-01T02:12:41.666Z,99.90
2019-04-01T02:15:11.053Z,99.90
2019-04-01T02:17:39.989Z,99.90
2019-04-01T02:20:09.682Z,99.90
2019-04-01T02:22:38.542Z,99.90
2019-04-01T02:25:08.011Z,99.90
2019-04-01T02:27:36.999Z,99.90
2019-04-01T02:30:06.234Z,99.90
2019-04-01T02:32:35.096Z,99.90
2019-04-01T02:35:04.311Z,99.90
2019-04-01T02:37:33.229Z,99.90
2019-04-01T02:40:02.430Z,99.90
2019-04-01T02:42:31.345Z,99.90
2019-04-01T02:45:00.625Z,99.90
2019-04-01T02:47:29.790Z,99.90
2019-04-01T02:49:59.084Z,99.90
2019-04-01T02:52:28.017Z,99.90
2019-04-01T02:54:57.330Z,99.90
2019-04-01T02:57:26.264Z,99.90
2019-04-01T02:59:55.237Z,99.90
2019-04-01T03:02:24.232Z,99.90
2019-04-01T03:04:53.263Z,99.90
2019-04-01T03:07:22.226Z,99.90
2019-04-01T03:09:51.247Z,99.90
2019-04-01T03:12:20.351Z,99.90
2019-04-01T03:14:49.366Z,99.90
2019-04-01T03:17:18.555Z,99.90
2019-04-01T03:19:47.526Z,99.90
2019-04-01T03:22:16.515Z,99.90
2019-04-01T03:24:45.559Z,99.90
2019-04-01T03:27:17.236Z,99.90
2019-04-01T03:29:45.489Z,99.90
2019-04-01T03:32:14.412Z,99.90
2019-04-01T03:34:43.391Z,99.90
2019-04-01T03:37:12.321Z,99.90
2019-04-01T03:39:41.376Z,99.90
2019-04-01T03:42:10.306Z,99.90
2019-04-01T03:44:40.515Z,99.90
2019-04-01T03:47:09.531Z,99.90
2019-04-01T03:49:38.488Z,99.90
2019-04-01T03:52:10.245Z,99.90
2019-04-01T03:54:38.396Z,99.90
2019-04-01T03:57:07.612Z,99.90
2019-04-01T03:59:36.558Z,99.90
2019-04-01T04:02:05.935Z,99.90
2019-04-01T04:04:34.863Z,99.90
2019-04-01T04:07:03.882Z,99.90
2019-04-01T04:09:32.829Z,99.90
2019-04-01T04:12:02.039Z,99.90
2019-04-01T04:14:30.988Z,99.90
2019-04-01T04:17:00.118Z,99.90
2019-04-01T04:19:29.039Z,99.90
2019-04-01T04:21:58.071Z,99.90
2019-04-01T04:24:27.008Z,99.90
2019-04-01T04:26:56.388Z,99.90
2019-04-01T04:29:25.541Z,99.90
2019-04-01T04:31:54.483Z,99.90
2019-04-01T04:34:23.586Z,99.90
2019-04-01T04:36:52.620Z,99.90
2019-04-01T04:39:21.549Z,99.90
2019-04-01T04:41:50.489Z,99.90
2019-04-01T04:44:19.422Z,99.90
2019-04-01T04:46:48.498Z,99.90
2019-04-01T04:49:17.500Z,99.90
2019-04-01T04:51:46.478Z,99.90
2019-04-01T04:54:15.656Z,99.90
2019-04-01T04:56:44.945Z,99.90
2019-04-01T04:59:13.927Z,99.90
2019-04-01T05:01:43.258Z,99.90
2019-04-01T05:04:12.191Z,99.90
2019-04-01T05:06:42.159Z,99.90
2019-04-01T05:09:11.066Z,99.90
2019-04-01T05:11:40.015Z,99.90
2019-04-01T05:14:09.799Z,99.90
2019-04-01T05:16:38.818Z,99.90
2019-04-01T05:19:07.916Z,99.90
2019-04-01T05:21:37.418Z,99.90
2019-04-01T05:24:06.677Z,99.90
2019-04-01T05:26:37.327Z,99.90
2019-04-01T05:29:06.506Z,99.90
2019-04-01T05:31:35.838Z,99.90
2019-04-01T05:34:05.027Z,99.90
2019-04-01T05:36:34.314Z,99.90
2019-04-01T05:39:04.269Z,99.90
2019-04-01T05:41:33.979Z,99.90
2019-04-01T05:44:03.092Z,99.90
2019-04-01T05:46:32.306Z,99.90
2019-04-01T05:49:01.628Z,99.90
2019-04-01T05:51:30.771Z,99.90
2019-04-01T05:53:59.805Z,99.90
2019-04-01T05:56:28.793Z,99.90
2019-04-01T05:58:59.579Z,99.90
2019-04-01T06:01:34.116Z,99.90
2019-04-01T06:04:03.247Z,99.90
2019-04-01T06:06:32.414Z,99.90
2019-04-01T06:09:01.501Z,99.90
2019-04-01T06:11:30.490Z,99.90
2019-04-01T06:13:59.675Z,99.90
2019-04-01T06:16:28.702Z,99.90
2019-04-01T06:18:57.761Z,99.90
2019-04-01T06:21:27.350Z,99.90
2019-04-01T06:23:56.338Z,99.90
2019-04-01T06:26:25.342Z,99.90
2019-04-01T06:28:54.843Z,99.90
2019-04-01T06:31:23.923Z,99.90
2019-04-01T06:33:53.063Z,99.90
2019-04-01T06:36:22.510Z,99.90
2019-04-01T06:38:51.592Z,99.90
2019-04-01T06:41:20.974Z,99.90
2019-04-01T06:43:50.094Z,99.90
2019-04-01T06:46:19.130Z,99.90
2019-04-01T06:48:48.331Z,99.90
2019-04-01T06:51:17.531Z,99.90
2019-04-01T06:53:46.566Z,99.90
2019-04-01T06:56:15.483Z,99.90
2019-04-01T06:58:44.519Z,99.90
2019-04-01T07:01:13.531Z,99.90
2019-04-01T07:03:43.016Z,99.90
2019-04-01T07:06:12.341Z,99.90
2019-04-01T07:08:41.416Z,99.90
2019-04-01T07:11:10.688Z,99.90
2019-04-01T07:13:40.413Z,99.90
2019-04-01T07:16:15.688Z,99.90
2019-04-01T07:18:40.405Z,99.20
2019-04-01T07:21:09.382Z,97.40
2019-04-01T07:23:38.746Z,82.40
2019-04-01T07:26:07.767Z,69.70
2019-04-01T07:28:36.801Z,55.30
2019-04-01T07:31:06.143Z,48.10
2019-04-01T07:33:35.217Z,41.60
2019-04-01T07:36:04.311Z,38.30
2019-04-01T07:38:33.405Z,37.70
2019-04-01T07:41:02.625Z,36.10
2019-04-01T07:43:31.721Z,34.00
2019-04-01T07:46:00.811Z,31.90
2019-04-01T07:48:29.956Z,30.60
2019-04-01T07:50:58.952Z,29.00
2019-04-01T07:53:28.330Z,29.80
2019-04-01T07:55:57.418Z,29.20
2019-04-01T07:58:27.184Z,29.60
2019-04-01T08:00:56.219Z,31.60
2019-04-01T08:03:25.289Z,29.80
2019-04-01T08:05:54.608Z,30.10
2019-04-01T08:08:23.715Z,29.00
2019-04-01T08:10:52.728Z,28.70
2019-04-01T08:13:21.731Z,28.60
2019-04-01T08:15:50.730Z,27.70
2019-04-01T08:18:20.206Z,28.20
2019-04-01T08:20:49.267Z,28.50
2019-04-01T08:23:18.285Z,28.00
2019-04-01T08:25:48.071Z,27.10
2019-04-01T08:28:17.295Z,27.30
2019-04-01T08:30:46.553Z,26.80
2019-04-01T08:33:15.656Z,27.70
2019-04-01T08:35:44.782Z,27.70
2019-04-01T08:38:13.810Z,26.90
2019-04-01T08:40:42.876Z,26.80
2019-04-01T08:43:12.103Z,26.90
2019-04-01T08:45:41.182Z,25.90
2019-04-01T08:48:10.403Z,26.50
2019-04-01T08:50:39.411Z,28.10
2019-04-01T08:53:08.454Z,26.90
2019-04-01T08:55:37.692Z,27.30
2019-04-01T08:58:06.820Z,26.90
2019-04-01T09:00:35.860Z,28.70
2019-04-01T09:03:05.132Z,28.60
2019-04-01T09:05:34.211Z,29.00
2019-04-01T09:08:03.153Z,28.60
2019-04-01T09:10:32.156Z,28.50
2019-04-01T09:13:01.648Z,28.40
2019-04-01T09:15:30.717Z,28.30
2019-04-01T09:17:59.817Z,27.20
2019-04-01T09:20:28.829Z,28.00
2019-04-01T09:22:59.361Z,28.50
2019-04-01T09:25:28.598Z,28.20
2019-04-01T09:27:57.767Z,27.60
2019-04-01T09:30:26.860Z,28.00
2019-04-01T09:32:55.889Z,28.90
2019-04-01T09:35:24.878Z,28.50
2019-04-01T09:37:54.031Z,28.80
2019-04-01T09:40:23.270Z,27.60
2019-04-01T09:42:52.212Z,29.40
2019-04-01T09:45:21.666Z,28.10
2019-04-01T09:47:50.559Z,28.90
2019-04-01T09:50:19.670Z,28.60
2019-04-01T09:52:48.622Z,30.10
2019-04-01T09:55:17.735Z,29.20
2019-04-01T09:57:46.722Z,29.20
2019-04-01T10:00:16.077Z,29.90
2019-04-01T10:02:44.998Z,30.50
2019-04-01T10:05:14.365Z,30.40
2019-04-01T10:07:43.512Z,34.10
2019-04-01T10:10:12.645Z,37.00
2019-04-01T10:12:41.675Z,38.60
2019-04-01T10:15:11.232Z,39.60
2019-04-01T10:17:40.229Z,36.30
2019-04-01T10:20:09.735Z,37.10
2019-04-01T10:22:38.668Z,37.70
2019-04-01T10:25:08.135Z,39.60
2019-04-01T10:27:37.228Z,40.60
2019-04-01T10:30:07.717Z,40.20
2019-04-01T10:32:36.658Z,38.80
2019-04-01T10:35:06.976Z,38.10
2019-04-01T10:37:36.015Z,38.20
2019-04-01T10:40:05.940Z,37.50
2019-04-01T10:42:34.863Z,38.00
2019-04-01T10:45:04.625Z,38.70
2019-04-01T10:47:33.948Z,37.30
2019-04-01T10:50:03.055Z,38.00
2019-04-01T10:52:32.074Z,39.90
2019-04-01T10:55:04.141Z,38.70
2019-04-01T10:57:33.109Z,39.00
2019-04-01T11:00:02.183Z,38.00
2019-04-01T11:02:31.215Z,39.20
2019-04-01T11:05:00.388Z,38.00
2019-04-01T11:07:29.644Z,38.90
2019-04-01T11:09:59.059Z,37.80
2019-04-01T11:12:28.338Z,37.80
2019-04-01T11:14:57.374Z,38.10
2019-04-01T11:17:26.343Z,38.50
2019-04-01T11:19:55.359Z,38.40
2019-04-01T11:22:24.218Z,39.20
2019-04-01T11:24:53.326Z,38.10
2019-04-01T11:27:22.166Z,38.10
2019-04-01T11:29:51.203Z,39.20
2019-04-01T11:32:20.222Z,38.70
2019-04-01T11:34:49.555Z,38.00
2019-04-01T11:37:18.582Z,39.90
2019-04-01T11:39:47.586Z,38.50
2019-04-01T11:42:16.791Z,40.70
2019-04-01T11:44:45.822Z,38.40
2019-04-01T11:47:15.160Z,39.20
2019-04-01T11:49:44.236Z,39.50
2019-04-01T11:52:15.502Z,38.90
2019-04-01T11:54:44.467Z,38.30
2019-04-01T11:57:13.462Z,39.50
2019-04-01T11:59:42.534Z,39.50
2019-04-01T12:02:11.577Z,37.50
2019-04-01T12:04:40.605Z,38.10
2019-04-01T12:07:09.559Z,39.30
2019-04-01T12:09:38.995Z,37.80
2019-04-01T12:12:22.436Z,37.20
2019-04-01T12:14:38.887Z,36.60
2019-04-01T12:17:07.861Z,37.50
2019-04-01T12:19:36.832Z,37.60
2019-04-01T12:22:06.283Z,38.70
2019-04-01T12:24:35.393Z,38.30
2019-04-01T12:27:04.478Z,37.20
2019-04-01T12:29:33.618Z,37.70
2019-04-01T12:32:02.804Z,40.10
2019-04-01T12:34:31.828Z,38.30
2019-04-01T12:37:00.923Z,38.70
2019-04-01T12:39:31.063Z,37.70
2019-04-01T12:42:00.082Z,38.90
2019-04-01T12:44:29.147Z,37.50
2019-04-01T12:46:58.147Z,38.80
2019-04-01T12:49:27.091Z,36.40
2019-04-01T12:51:58.361Z,36.00
2019-04-01T12:54:26.787Z,36.60
2019-04-01T12:56:55.748Z,37.80
2019-04-01T12:59:24.703Z,37.60
2019-04-01T13:01:53.684Z,38.10
2019-04-01T13:04:22.597Z,37.00
2019-04-01T13:06:51.731Z,38.10
2019-04-01T13:09:22.159Z,37.60
2019-04-01T13:11:51.576Z,36.50
2019-04-01T13:14:20.508Z,37.80
2019-04-01T13:16:49.467Z,37.80
2019-04-01T13:19:18.556Z,37.30
2019-04-01T13:21:47.763Z,37.70
2019-04-01T13:24:16.708Z,35.80
2019-04-01T13:26:45.751Z,36.10
2019-04-01T13:29:14.767Z,36.30
2019-04-01T13:31:43.724Z,36.80
2019-04-01T13:34:12.688Z,36.60
2019-04-01T13:36:41.698Z,37.80
2019-04-01T13:39:11.053Z,35.70
2019-04-01T13:41:42.522Z,35.20
2019-04-01T13:44:11.070Z,36.30
2019-04-01T13:46:40.313Z,36.80
2019-04-01T13:49:10.179Z,37.00
2019-04-01T13:51:42.947Z,36.50
2019-04-01T13:54:11.449Z,36.80
2019-04-01T13:56:41.264Z,36.80
2019-04-01T13:59:12.555Z,36.30
2019-04-01T14:01:42.023Z,36.30
2019-04-01T14:04:11.262Z,36.30
2019-04-01T14:06:40.231Z,37.30
2019-04-01T14:09:09.403Z,35.70
2019-04-01T14:11:38.353Z,35.20
2019-04-01T14:14:07.362Z,36.10
2019-04-01T14:16:36.332Z,36.00
2019-04-01T14:19:05.355Z,35.10
2019-04-01T14:21:34.388Z,35.00
2019-04-01T14:24:03.399Z,34.30
2019-04-01T14:26:32.606Z,33.70
2019-04-01T14:29:01.551Z,34.20
2019-04-01T14:31:30.638Z,35.00
2019-04-01T14:33:59.607Z,34.20
2019-04-01T14:36:28.547Z,34.30
2019-04-01T14:38:57.526Z,34.10
2019-04-01T14:41:26.513Z,35.30
2019-04-01T14:43:55.491Z,34.40
2019-04-01T14:46:24.455Z,34.20
2019-04-01T14:48:53.377Z,35.30
2019-04-01T14:51:22.726Z,34.10
2019-04-01T14:53:54.149Z,32.90
2019-04-01T14:56:23.135Z,33.60
2019-04-01T14:58:52.967Z,33.80
2019-04-01T15:01:22.631Z,34.90
2019-04-01T15:03:51.603Z,34.80
2019-04-01T15:06:21.183Z,33.90
2019-04-01T15:08:50.417Z,33.80
2019-04-01T15:11:20.525Z,34.10
2019-04-01T15:13:49.590Z,36.30
2019-04-01T15:16:18.530Z,35.90
2019-04-01T15:18:49.741Z,36.20
2019-04-01T15:21:18.361Z,38.20
2019-04-01T15:23:47.214Z,37.40
2019-04-01T15:26:17.098Z,34.90
2019-04-01T15:28:46.060Z,35.10
2019-04-01T15:31:15.099Z,35.30
2019-04-01T15:33:44.034Z,35.80
2019-04-01T15:36:13.489Z,36.70
2019-04-01T15:38:42.613Z,36.30
2019-04-01T15:41:11.853Z,35.10
2019-04-01T15:43:42.685Z,35.70
2019-04-01T15:46:11.559Z,36.10
2019-04-01T15:48:40.592Z,34.60
2019-04-01T15:51:09.563Z,35.80
2019-04-01T15:53:38.582Z,36.10
2019-04-01T15:56:07.615Z,35.80
2019-04-01T15:58:36.795Z,37.00
2019-04-01T16:01:05.921Z,37.00
2019-04-01T16:03:34.865Z,37.00
2019-04-01T16:06:07.454Z,37.20
2019-04-01T16:08:34.859Z,37.70
2019-04-01T16:11:04.188Z,38.00
2019-04-01T16:13:33.205Z,38.20
2019-04-01T16:16:02.166Z,38.30
2019-04-01T16:18:31.198Z,38.80
2019-04-01T16:21:00.761Z,38.90
2019-04-01T16:23:29.710Z,38.70
2019-04-01T16:25:58.925Z,39.30
2019-04-01T16:28:27.991Z,40.30
2019-04-01T16:30:57.175Z,39.40
2019-04-01T16:33:26.238Z,39.90
2019-04-01T16:35:55.174Z,39.90
2019-04-01T16:38:24.141Z,40.50
2019-04-01T16:40:53.093Z,40.60
2019-04-01T16:43:22.166Z,40.50
2019-04-01T16:45:51.258Z,40.40
2019-04-01T16:48:20.185Z,40.70
2019-04-01T16:50:49.192Z,40.20
2019-04-01T16:53:18.246Z,40.60
2019-04-01T16:55:47.353Z,40.80
2019-04-01T16:58:16.705Z,40.90
2019-04-01T17:00:45.893Z,40.40
2019-04-01T17:03:15.056Z,41.70
2019-04-01T17:05:44.135Z,41.40
2019-04-01T17:08:13.574Z,41.30
2019-04-01T17:10:42.671Z,41.30
2019-04-01T17:13:11.792Z,41.20
2019-04-01T17:15:40.800Z,42.70
2019-04-01T17:18:09.853Z,42.90
2019-04-01T17:20:39.031Z,43.40
2019-04-01T17:23:08.070Z,44.00
2019-04-01T17:25:37.092Z,43.90
2019-04-01T17:28:06.793Z,44.50
2019-04-01T17:30:35.667Z,44.50
2019-04-01T17:33:08.096Z,44.80
2019-04-01T17:35:35.744Z,45.00
2019-04-01T17:38:04.810Z,45.30
2019-04-01T17:40:33.867Z,45.30
2019-04-01T17:43:03.202Z,45.40
2019-04-01T17:45:38.106Z,46.50
2019-04-01T17:48:07.670Z,46.40
2019-04-01T17:50:36.801Z,47.20
2019-04-01T17:53:07.550Z,47.20
2019-04-01T17:55:36.701Z,47.20
2019-04-01T17:58:07.053Z,47.40
2019-04-01T18:00:38.878Z,48.20
2019-04-01T18:03:09.432Z,48.30
2019-04-01T18:05:38.580Z,48.50
2019-04-01T18:08:07.599Z,48.60
2019-04-01T18:10:36.609Z,48.60
2019-04-01T18:13:05.692Z,48.80
2019-04-01T18:15:34.698Z,49.30
2019-04-01T18:18:03.715Z,49.60
2019-04-01T18:20:33.470Z,49.00
2019-04-01T18:23:03.331Z,49.40
2019-04-01T18:25:32.375Z,49.70
2019-04-01T18:28:01.707Z,49.80
2019-04-01T18:30:30.807Z,49.70
2019-04-01T18:33:00.213Z,49.70
2019-04-01T18:35:29.348Z,49.30
2019-04-01T18:37:58.523Z,49.60
2019-04-01T18:40:33.179Z,49.80
2019-04-01T18:42:59.228Z,49.60
2019-04-01T18:45:30.587Z,49.40
2019-04-01T18:47:59.773Z,49.50
2019-04-01T18:50:28.719Z,49.70
2019-04-01T18:52:57.697Z,49.40
2019-04-01T18:55:27.254Z,49.60
2019-04-01T18:57:56.540Z,50.00
2019-04-01T19:00:25.642Z,49.80
2019-04-01T19:02:55.640Z,50.40
2019-04-01T19:05:25.286Z,50.40
2019-04-01T19:07:54.343Z,50.50
2019-04-01T19:10:24.150Z,50.70
2019-04-01T19:13:05.106Z,50.50
2019-04-01T19:15:24.550Z,50.90
2019-04-01T19:17:54.476Z,50.90
2019-04-01T19:20:23.864Z,51.00
2019-04-01T19:22:52.784Z,51.20
2019-04-01T19:25:23.365Z,51.40
2019-04-01T19:27:52.603Z,51.50
2019-04-01T19:30:22.223Z,51.60
2019-04-01T19:32:51.276Z,52.00
2019-04-01T19:35:20.581Z,52.40
2019-04-01T19:37:49.564Z,52.30
2019-04-01T19:40:20.560Z,52.30
2019-04-01T19:42:49.466Z,52.80
2019-04-01T19:45:18.630Z,52.90
2019-04-01T19:47:47.688Z,52.90
2019-04-01T19:50:18.618Z,53.00
2019-04-01T19:52:47.716Z,53.20
2019-04-01T19:55:16.724Z,54.30
2019-04-01T19:57:45.715Z,53.90
2019-04-01T20:00:27.057Z,54.00
2019-04-01T20:02:45.974Z,53.80
2019-04-01T20:05:15.321Z,53.90
2019-04-01T20:07:44.603Z,54.10
2019-04-01T20:10:13.845Z,54.30
2019-04-01T20:12:43.031Z,54.60
2019-04-01T20:15:13.203Z,54.50
2019-04-01T20:17:42.351Z,54.60
2019-04-01T20:20:14.352Z,54.50
2019-04-01T20:22:42.959Z,54.60
2019-04-01T20:25:12.546Z,54.90
2019-04-01T20:27:41.544Z,55.20
2019-04-01T20:30:11.109Z,55.30
2019-04-01T20:32:40.451Z,56.20
2019-04-01T20:35:22.327Z,56.40
2019-04-01T20:37:40.382Z,55.80
2019-04-01T20:40:10.215Z,56.40
2019-04-01T20:42:39.524Z,56.10
2019-04-01T20:45:11.135Z,56.40
2019-04-01T20:47:40.914Z,56.40
2019-04-01T20:50:11.400Z,56.60
2019-04-01T20:52:40.517Z,56.50
2019-04-01T20:55:09.728Z,56.90
2019-04-01T20:57:39.116Z,57.00
2019-04-01T21:00:09.530Z,57.20
2019-04-01T21:02:38.795Z,57.40
2019-04-01T21:05:08.016Z,57.40
2019-04-01T21:07:37.048Z,57.40
2019-04-01T21:10:06.747Z,57.80
2019-04-01T21:12:36.970Z,57.70
2019-04-01T21:15:06.509Z,58.10
2019-04-01T21:17:35.982Z,57.90
2019-04-01T21:20:05.627Z,58.70
2019-04-01T21:22:34.723Z,58.50
2019-04-01T21:25:04.355Z,58.60
2019-04-01T21:27:33.376Z,58.80
2019-04-01T21:30:02.467Z,58.90
2019-04-01T21:32:31.491Z,59.50
2019-04-01T21:35:00.757Z,59.90
2019-04-01T21:37:29.640Z,60.80
2019-04-01T21:39:59.224Z,60.90
2019-04-01T21:42:29.172Z,61.00
2019-04-01T21:44:58.178Z,61.00
2019-04-01T21:47:27.374Z,61.40
2019-04-01T21:49:56.259Z,61.20
2019-04-01T21:52:25.207Z,61.80
2019-04-01T21:54:54.198Z,62.10
2019-04-01T21:57:23.151Z,62.80
2019-04-01T21:59:52.102Z,64.80
2019-04-01T22:02:21.274Z,64.90
2019-04-01T22:04:50.156Z,67.20
2019-04-01T22:07:19.266Z,66.40
2019-04-01T22:09:48.252Z,70.60
2019-04-01T22:12:17.306Z,73.30
2019-04-01T22:14:46.539Z,77.80
2019-04-01T22:17:16.137Z,79.00
2019-04-01T22:19:46.155Z,80.70
2019-04-01T22:22:15.135Z,83.70
2019-04-01T22:24:44.125Z,87.40
2019-04-01T22:27:13.052Z,92.20
2019-04-01T22:29:42.267Z,97.10
2019-04-01T22:32:12.262Z,95.80
2019-04-01T22:34:42.128Z,99.40
2019-04-01T22:37:11.047Z,96.20
2019-04-01T22:39:40.026Z,93.90
2019-04-01T22:42:08.947Z,95.40
2019-04-01T22:44:38.160Z,91.70
2019-04-01T22:47:07.129Z,91.60
2019-04-01T22:49:36.099Z,90.20
2019-04-01T22:52:05.430Z,89.20
2019-04-01T22:54:35.305Z,86.80
2019-04-01T22:57:04.349Z,87.10
2019-04-01T22:59:33.357Z,87.20
2019-04-01T23:02:02.291Z,87.10
2019-04-01T23:04:31.338Z,86.60
2019-04-01T23:07:00.201Z,85.10
2019-04-01T23:09:29.456Z,84.80
2019-04-01T23:11:58.524Z,86.50
2019-04-01T23:14:27.492Z,83.60
2019-04-01T23:16:56.411Z,82.90
2019-04-01T23:19:25.403Z,84.00
2019-04-01T23:21:54.323Z,83.10
2019-04-01T23:24:23.538Z,82.80
2019-04-01T23:26:52.462Z,83.70
2019-04-01T23:29:22.230Z,82.10
2019-04-01T23:31:51.774Z,81.70
2019-04-01T23:34:21.040Z,80.90
2019-04-01T23:36:50.287Z,81.10
2019-04-01T23:39:19.566Z,80.80
2019-04-01T23:41:48.551Z,79.70
2019-04-01T23:44:17.883Z,79.50
2019-04-01T23:46:47.161Z,79.60
2019-04-01T23:49:17.183Z,79.20
2019-04-01T23:51:46.185Z,79.50
2019-04-01T23:54:15.078Z,79.10
2019-04-01T23:56:44.275Z,80.50
2019-04-01T23:59:13.255Z,80.90
